Time;durP1;ratioP1;P1;durP2;ratioP2;P2;SDS_P1;SDS_P2;PMS_P1;PMS_P2;Temp;Humidity;BMP_temperature;BMP_pressure;BME280_temperature;BME280_humidity;BME280_pressure;Samples;Min_cycle;Max_cycle;Signal;HPM_P1;HPM_P2
2023/02/14 00:02:24;;;;;;;45.30;19.07;;;;;;;4.29;100.00;103443.44;7393761;19;21059;-52
2023/02/14 00:04:53;;;;;;;40.50;18.10;;;;;;;4.26;100.00;103443.13;7398947;19;20403;-55
2023/02/14 00:07:25;;;;;;;43.00;18.30;;;;;;;4.24;100.00;103444.56;7393205;19;20448;-58
2023/02/14 00:09:54;;;;;;;41.27;19.30;;;;;;;4.26;100.00;103441.44;7397337;19;20398;-54
2023/02/14 00:12:24;;;;;;;41.70;18.33;;;;;;;4.19;100.00;103451.75;7393637;19;20442;-57
2023/02/14 00:17:35;;;;;;;42.00;19.10;;;;;;;4.17;100.00;103454.13;7393921;19;20423;-53
2023/02/14 00:20:05;;;;;;;41.20;18.33;;;;;;;4.18;100.00;103455.97;7396539;19;20396;-54
2023/02/14 00:22:40;;;;;;;42.83;19.63;;;;;;;4.19;100.00;103451.75;7394069;19;20442;-55
2023/02/14 00:25:09;;;;;;;43.63;20.17;;;;;;;4.18;100.00;103453.41;7397742;19;20399;-56
2023/02/14 00:27:39;;;;;;;43.07;18.10;;;;;;;4.17;100.00;103448.13;7392021;19;20415;-58
2023/02/14 00:30:10;;;;;;;43.90;19.67;;;;;;;4.12;100.00;103445.06;7395453;19;20420;-55
2023/02/14 00:32:40;;;;;;;48.00;20.50;;;;;;;4.11;100.00;103453.44;7392963;19;20476;-57
2023/02/14 00:35:11;;;;;;;47.67;19.87;;;;;;;4.06;100.00;103444.38;7396943;19;20767;-57
2023/02/14 00:37:43;;;;;;;42.70;20.57;;;;;;;4.18;100.00;103449.94;7393206;19;20416;-55
2023/02/14 00:40:13;;;;;;;47.20;21.43;;;;;;;4.24;100.00;103449.69;7395682;19;20833;-57
2023/02/14 00:42:42;;;;;;;44.37;19.13;;;;;;;4.24;100.00;103449.69;7392409;19;20427;-55
2023/02/14 00:45:12;;;;;;;42.87;18.53;;;;;;;4.24;100.00;103442.00;7396186;19;20419;-53
2023/02/14 00:47:41;;;;;;;40.97;18.90;;;;;;;4.20;100.00;103448.44;7391052;19;20432;-56
2023/02/14 00:50:11;;;;;;;46.10;20.30;;;;;;;4.18;100.00;103444.81;7395335;19;20425;-53
2023/02/14 00:52:43;;;;;;;45.97;19.50;;;;;;;4.18;100.00;103450.84;7391720;19;20430;-56
2023/02/14 00:55:13;;;;;;;42.43;18.53;;;;;;;4.18;100.00;103452.47;7396352;19;20401;-54
2023/02/14 00:57:42;;;;;;;44.10;18.60;;;;;;;4.17;100.00;103446.44;7392444;19;20421;-54
2023/02/14 01:00:13;;;;;;;46.10;19.47;;;;;;;4.21;100.00;103445.16;7395136;19;20421;-57
2023/02/14 01:02:43;;;;;;;42.67;19.27;;;;;;;4.20;100.00;103445.88;7392913;19;20444;-55
2023/02/14 01:05:12;;;;;;;44.00;19.83;;;;;;;4.17;100.00;103448.13;7396136;19;20919;-57
2023/02/14 01:07:44;;;;;;;40.57;19.90;;;;;;;4.21;100.00;103446.81;7392303;19;20434;-54
2023/02/14 01:10:14;;;;;;;41.20;18.50;;;;;;;4.23;100.00;103443.69;7394959;19;20436;-59
2023/02/14 01:12:43;;;;;;;45.00;20.07;;;;;;;4.20;100.00;103438.22;7392614;19;20440;-53
2023/02/14 01:15:13;;;;;;;40.20;18.03;;;;;;;4.23;100.00;103432.53;7395535;19;20412;-60
2023/02/14 01:17:42;;;;;;;40.37;18.43;;;;;;;4.21;100.00;103442.63;7391741;19;20416;-57
2023/02/14 01:20:13;;;;;;;40.63;19.37;;;;;;;4.18;100.00;103430.41;7394396;19;20441;-57
2023/02/14 01:22:45;;;;;;;44.90;20.17;;;;;;;4.15;100.00;103432.59;7392524;19;20426;-57
2023/02/14 01:25:15;;;;;;;41.40;19.83;;;;;;;4.10;100.00;103420.97;7395921;19;20422;-54
2023/02/14 01:27:44;;;;;;;42.80;18.53;;;;;;;4.00;100.00;103424.13;7391741;19;20806;-57
2023/02/14 01:30:15;;;;;;;41.80;19.20;;;;;;;3.95;100.00;103419.25;7394445;19;20424;-53
2023/02/14 01:32:45;;;;;;;38.87;17.93;;;;;;;3.90;100.00;103412.00;7391690;19;20959;-57
2023/02/14 01:35:14;;;;;;;40.17;17.67;;;;;;;3.89;100.00;103425.50;7395144;19;20771;-52
2023/02/14 01:37:46;;;;;;;43.60;19.93;;;;;;;3.91;100.00;103416.34;7391221;19;20420;-55
2023/02/14 01:40:16;;;;;;;37.90;17.57;;;;;;;3.91;100.00;103412.91;7394072;19;20834;-57
2023/02/14 01:42:46;;;;;;;39.73;17.50;;;;;;;3.94;100.00;103422.56;7391906;19;20423;-58
2023/02/14 01:45:19;;;;;;;39.00;18.10;;;;;;;3.97;100.00;103421.25;7394799;19;20765;-56
2023/02/14 01:47:52;;;;;;;40.27;17.97;;;;;;;3.93;100.00;103416.53;7391438;19;20440;-55
2023/02/14 01:50:24;;;;;;;36.07;16.70;;;;;;;3.98;100.00;103419.59;7393952;19;20543;-55
2023/02/14 01:53:00;;;;;;;42.83;18.17;;;;;;;3.95;100.00;103420.16;7389140;19;20441;-56
2023/02/14 01:55:32;;;;;;;43.13;17.20;;;;;;;3.95;100.00;103414.16;7394811;19;20409;-57
2023/02/14 01:58:03;;;;;;;43.13;19.23;;;;;;;4.01;100.00;103396.97;7386349;19;20992;-55
2023/02/14 02:03:15;;;;;;;43.37;18.40;;;;;;;4.03;100.00;103387.81;7390208;19;20858;-56
2023/02/14 02:05:49;;;;;;;41.00;17.90;;;;;;;3.96;100.00;103385.31;7395418;19;20401;-56
2023/02/14 02:08:21;;;;;;;39.57;18.03;;;;;;;3.95;100.00;103383.50;7388967;19;20451;-52
2023/02/14 02:10:51;;;;;;;42.87;18.33;;;;;;;3.92;100.00;103385.00;7393660;19;20457;-52
2023/02/14 02:13:22;;;;;;;40.40;17.77;;;;;;;3.88;100.00;103385.38;7390317;19;20786;-55
2023/02/14 02:15:59;;;;;;;41.83;18.20;;;;;;;3.84;100.00;103390.88;7393448;19;20409;-54
2023/02/14 02:18:38;;;;;;;44.50;17.83;;;;;;;3.92;100.00;103385.00;7389655;19;20432;-53
2023/02/14 02:21:44;;;;;;;44.67;18.30;;;;;;;4.05;100.00;103387.25;7392683;19;20432;-56
2023/02/14 02:24:32;;;;;;;39.67;18.30;;;;;;;4.14;100.00;103377.13;7389026;19;20454;-54
2023/02/14 02:27:26;;;;;;;43.37;18.47;;;;;;;4.07;100.00;103374.63;7390196;19;20396;-58
2023/02/14 02:30:28;;;;;;;42.17;19.40;;;;;;;4.27;100.00;103381.03;7389232;19;20388;-55
2023/02/14 02:33:18;;;;;;;44.23;19.83;;;;;;;4.48;100.00;103369.69;7387125;19;20436;-54
2023/02/14 02:35:58;;;;;;;51.27;20.37;;;;;;;4.64;100.00;103351.78;7390395;19;20407;-55
2023/02/14 02:38:37;;;;;;;42.33;18.53;;;;;;;4.50;100.00;103367.31;7386861;19;20447;-52
2023/02/14 02:41:16;;;;;;;47.70;20.03;;;;;;;4.35;100.00;103363.97;7388700;19;20453;-56
2023/02/14 02:43:54;;;;;;;47.87;21.30;;;;;;;4.33;100.00;103367.25;7386399;19;20435;-56
2023/02/14 02:53:01;;;;;;;46.53;20.40;;;;;;;4.29;100.00;103360.00;7384449;19;20465;-55
2023/02/14 02:54:57;;;;;;;141.23;57.87;;;;;;;4.33;100.00;103359.59;7389399;19;20397;-56
2023/02/14 02:57:30;;;;;;;124.60;50.40;;;;;;;4.66;100.00;103340.06;7388125;19;21260;-55
2023/02/14 02:59:59;;;;;;;60.30;26.50;;;;;;;4.73;100.00;103341.63;7388547;19;20395;-56
2023/02/14 03:02:32;;;;;;;44.17;19.97;;;;;;;4.56;100.00;103348.41;7386984;19;20421;-55
2023/02/14 03:05:01;;;;;;;52.60;22.50;;;;;;;4.67;100.00;103347.00;7389532;19;20381;-57
2023/02/14 03:07:39;;;;;;;44.80;18.27;;;;;;;4.64;100.00;103346.66;7385799;19;20412;-56
2023/02/14 03:10:14;;;;;;;47.03;20.00;;;;;;;4.68;100.00;103353.03;7393020;19;20429;-56
2023/02/14 03:13:27;;;;;;;42.73;19.13;;;;;;;4.48;100.00;103368.75;7393135;19;20419;-54
2023/02/14 03:16:26;;;;;;;45.43;19.87;;;;;;;4.18;100.00;103363.97;7396689;19;20924;-55
2023/02/14 03:19:37;;;;;;;42.07;18.30;;;;;;;4.00;100.00;103367.03;7392757;19;20481;-53
2023/02/14 03:22:08;;;;;;;47.67;19.73;;;;;;;4.17;100.00;103361.22;7391214;19;20477;-52
2023/02/14 03:24:46;;;;;;;41.47;17.67;;;;;;;4.35;100.00;103349.53;7400086;19;20396;-53
2023/02/14 03:27:20;;;;;;;46.97;21.17;;;;;;;4.35;100.00;103346.09;7392988;19;20412;-51
2023/02/14 03:29:58;;;;;;;46.17;19.67;;;;;;;4.39;100.00;103344.03;7393082;19;20404;-53
2023/02/14 03:32:35;;;;;;;44.70;18.33;;;;;;;4.43;100.00;103338.50;7393575;19;20418;-53
2023/02/14 03:35:13;;;;;;;53.40;20.33;;;;;;;4.08;100.00;103349.97;7396109;19;20391;-50
2023/02/14 03:37:46;;;;;;;49.93;19.43;;;;;;;4.19;100.00;103339.28;7392657;19;20423;-55
2023/02/14 03:40:22;;;;;;;50.30;21.80;;;;;;;4.17;100.00;103336.56;7394437;19;20751;-54
2023/02/14 03:42:54;;;;;;;47.30;20.23;;;;;;;4.09;100.00;103339.03;7392664;19;20419;-55
2023/02/14 03:45:30;;;;;;;43.47;19.30;;;;;;;4.10;100.00;103326.41;7395311;19;20750;-56
2023/02/14 03:48:02;;;;;;;44.70;20.10;;;;;;;4.36;100.00;103312.09;7391784;19;20733;-56
2023/02/14 03:50:33;;;;;;;52.20;21.30;;;;;;;4.29;100.00;103310.53;7394004;19;20407;-54
2023/02/14 03:53:03;;;;;;;50.40;20.77;;;;;;;4.16;100.00;103304.09;7391353;19;20408;-56
2023/02/14 03:55:39;;;;;;;49.13;20.57;;;;;;;4.19;100.00;103295.84;7395660;19;20384;-53
2023/02/14 03:58:16;;;;;;;46.23;19.63;;;;;;;4.21;100.00;103285.78;7391905;19;20447;-53
2023/02/14 04:00:46;;;;;;;47.43;19.67;;;;;;;4.26;100.00;103288.09;7393206;19;20452;-56
2023/02/14 04:03:16;;;;;;;47.80;20.33;;;;;;;4.37;100.00;103283.25;7392460;19;20442;-56
2023/02/14 04:05:51;;;;;;;52.60;21.80;;;;;;;4.43;100.00;103286.47;7399564;19;20935;-55
2023/02/14 04:08:24;;;;;;;45.73;18.73;;;;;;;4.66;100.00;103270.13;7393527;19;20451;-58
2023/02/14 04:10:58;;;;;;;55.17;21.47;;;;;;;4.37;100.00;103273.03;7393113;19;20437;-57
2023/02/14 04:13:29;;;;;;;47.90;20.17;;;;;;;4.14;100.00;103281.66;7391031;19;20747;-55
2023/02/14 04:15:58;;;;;;;45.80;20.27;;;;;;;3.92;100.00;103280.25;7394699;19;20456;-55
2023/02/14 04:21:19;;;;;;;51.73;22.70;;;;;;;4.40;100.00;103258.00;7389286;19;20425;-54
2023/02/14 04:23:48;;;;;;;51.90;21.43;;;;;;;4.23;100.00;103266.41;7391063;19;20407;-54
2023/02/14 04:26:20;;;;;;;48.53;20.60;;;;;;;4.27;100.00;103271.13;7393962;19;20392;-55
2023/02/14 04:28:50;;;;;;;54.20;22.23;;;;;;;4.09;100.00;103272.59;7389836;19;20423;-57
2023/02/14 04:31:19;;;;;;;55.70;21.80;;;;;;;4.09;100.00;103272.59;7392821;19;20848;-56
2023/02/14 04:33:50;;;;;;;45.07;19.80;;;;;;;4.11;100.00;103269.44;7391089;19;20435;-56
2023/02/14 04:36:19;;;;;;;47.63;19.53;;;;;;;4.25;100.00;103263.28;7393702;19;20963;-54
2023/02/14 04:38:48;;;;;;;58.00;22.60;;;;;;;4.32;100.00;103252.09;7390757;19;20776;-55
2023/02/14 04:41:21;;;;;;;54.30;21.27;;;;;;;4.03;100.00;103254.94;7391920;19;20445;-58
2023/02/14 04:43:50;;;;;;;53.80;21.73;;;;;;;3.97;100.00;103260.31;7390671;19;20419;-53
2023/02/14 04:46:19;;;;;;;46.70;20.27;;;;;;;3.86;100.00;103261.69;7393705;19;20934;-57
2023/02/14 04:48:49;;;;;;;48.10;20.47;;;;;;;3.99;100.00;103255.38;7388996;19;20443;-53
2023/02/14 04:51:18;;;;;;;59.00;21.70;;;;;;;4.01;100.00;103259.88;7391884;19;20962;-58
2023/02/14 04:53:48;;;;;;;51.80;20.30;;;;;;;4.01;100.00;103248.78;7389083;19;20416;-55
2023/02/14 04:56:17;;;;;;;49.70;21.43;;;;;;;4.03;100.00;103242.16;7393998;19;20385;-57
2023/02/14 04:58:49;;;;;;;55.07;21.10;;;;;;;4.15;100.00;103240.94;7388978;19;20460;-58
2023/02/14 05:01:19;;;;;;;48.93;20.90;;;;;;;4.29;100.00;103238.97;7391794;19;20396;-56
2023/02/14 05:03:48;;;;;;;57.33;22.33;;;;;;;4.30;100.00;103240.75;7387953;19;20821;-52
2023/02/14 05:06:18;;;;;;;54.73;22.53;;;;;;;4.35;100.00;103239.63;7393266;19;20431;-56
2023/02/14 05:08:47;;;;;;;52.10;20.80;;;;;;;4.27;100.00;103245.56;7389063;19;20542;-56
2023/02/14 05:11:16;;;;;;;47.90;20.83;;;;;;;4.18;100.00;103254.06;7391354;19;20430;-54
2023/02/14 05:13:48;;;;;;;54.30;21.37;;;;;;;4.22;100.00;103249.25;7389790;19;20965;-56
2023/02/14 05:16:18;;;;;;;387.43;200.20;;;;;;;4.66;100.00;103237.75;7392565;19;20380;-53
2023/02/14 05:18:47;;;;;;;55.93;24.20;;;;;;;5.52;100.00;103233.72;7388996;19;20427;-57
2023/02/14 05:21:17;;;;;;;67.07;29.33;;;;;;;5.42;100.00;103244.69;7391261;19;20452;-55
2023/02/14 05:23:46;;;;;;;53.27;20.77;;;;;;;4.71;100.00;103267.28;7389417;19;20441;-57
2023/02/14 05:26:16;;;;;;;63.23;25.83;;;;;;;4.67;100.00;103272.81;7392060;19;20412;-57
2023/02/14 05:28:45;;;;;;;59.20;26.50;;;;;;;4.68;100.00;103272.06;7388657;19;20425;-57
2023/02/14 05:31:17;;;;;;;54.20;24.10;;;;;;;4.56;100.00;103274.25;7391266;19;20426;-56
2023/02/14 05:33:47;;;;;;;65.33;24.00;;;;;;;4.44;100.00;103280.59;7388775;19;20433;-55
2023/02/14 05:36:16;;;;;;;54.30;24.00;;;;;;;4.36;100.00;103277.22;7391778;19;20377;-55
2023/02/14 05:38:46;;;;;;;59.33;24.67;;;;;;;4.42;100.00;103277.88;7388307;19;20432;-54
2023/02/14 05:41:15;;;;;;;56.70;22.97;;;;;;;4.35;100.00;103269.41;7390420;19;20965;-58
2023/02/14 05:43:45;;;;;;;63.50;26.70;;;;;;;4.51;100.00;103262.59;7388591;19;20432;-56
2023/02/14 05:46:14;;;;;;;54.53;23.60;;;;;;;4.60;100.00;103252.44;7391567;19;20388;-57
2023/02/14 05:48:47;;;;;;;85.70;38.87;;;;;;;4.79;100.00;103254.41;7387747;19;21033;-56
2023/02/14 05:51:16;;;;;;;66.70;28.63;;;;;;;5.17;100.00;103256.63;7390171;19;20425;-56
2023/02/14 05:53:46;;;;;;;68.03;23.90;;;;;;;4.77;100.00;103261.91;7387777;19;20954;-54
2023/02/14 05:56:15;;;;;;;66.20;28.57;;;;;;;4.58;100.00;103269.28;7391454;19;20416;-55
2023/02/14 05:58:45;;;;;;;61.27;27.03;;;;;;;4.52;100.00;103273.75;7387210;19;20423;-54
2023/02/14 06:01:14;;;;;;;53.87;20.10;;;;;;;4.27;100.00;103272.03;7389808;19;20415;-58
2023/02/14 06:03:46;;;;;;;49.67;21.40;;;;;;;4.04;100.00;103267.91;7388183;19;20404;-57
2023/02/14 06:06:16;;;;;;;51.63;21.00;;;;;;;3.90;100.00;103255.28;7391143;19;20376;-55
2023/02/14 06:08:45;;;;;;;53.03;20.27;;;;;;;3.79;100.00;103254.06;7387112;19;20430;-56
2023/02/14 06:11:15;;;;;;;48.83;20.00;;;;;;;3.73;100.00;103240.63;7392799;19;20442;-53
2023/02/14 06:13:44;;;;;;;51.03;22.80;;;;;;;3.73;100.00;103238.09;7388064;19;20415;-56
2023/02/14 06:16:14;;;;;;;49.20;21.70;;;;;;;3.70;100.00;103235.22;7390556;19;20434;-52
2023/02/14 06:18:43;;;;;;;53.70;21.90;;;;;;;3.70;100.00;103237.75;7386992;19;20430;-55
2023/02/14 06:21:15;;;;;;;49.93;20.40;;;;;;;3.67;100.00;103232.31;7389553;19;20454;-56
2023/02/14 06:23:44;;;;;;;47.20;21.40;;;;;;;3.59;100.00;103227.28;7387478;19;20460;-57
2023/02/14 06:26:14;;;;;;;50.03;20.93;;;;;;;3.60;100.00;103225.63;7390415;19;20399;-56
2023/02/14 06:28:44;;;;;;;52.20;22.40;;;;;;;3.55;100.00;103227.69;7386799;19;21209;-53
2023/02/14 06:31:17;;;;;;;56.13;21.10;;;;;;;3.53;100.00;103224.03;7388270;19;20431;-55
2023/02/14 06:33:46;;;;;;;53.30;20.97;;;;;;;3.51;100.00;103225.53;7387427;19;20407;-56
2023/02/14 06:36:18;;;;;;;53.93;21.03;;;;;;;3.51;100.00;103217.88;7389953;19;20414;-58
2023/02/14 06:38:49;;;;;;;51.97;21.77;;;;;;;3.54;100.00;103219.84;7386460;19;20499;-58
2023/02/14 06:41:19;;;;;;;52.97;22.33;;;;;;;3.51;100.00;103216.25;7388621;19;20423;-56
2023/02/14 06:43:49;;;;;;;53.17;22.03;;;;;;;3.58;100.00;103217.81;7384324;19;20419;-57
2023/02/14 06:46:19;;;;;;;52.33;20.77;;;;;;;3.60;100.00;103218.88;7389862;19;20379;-55
2023/02/14 06:48:49;;;;;;;57.37;23.13;;;;;;;3.58;100.00;103217.81;7385946;19;20457;-54
2023/02/14 06:51:21;;;;;;;53.00;22.07;;;;;;;3.55;100.00;103222.59;7391771;19;20431;-55
2023/02/14 06:53:51;;;;;;;50.80;21.70;;;;;;;3.53;100.00;103224.03;7385412;19;20440;-54
2023/02/14 06:56:20;;;;;;;54.63;22.20;;;;;;;3.47;100.00;103218.25;7389378;19;20404;-57
2023/02/14 06:58:49;;;;;;;48.37;20.40;;;;;;;3.49;100.00;103221.91;7385078;19;20411;-54
2023/02/14 07:01:19;;;;;;;55.43;22.63;;;;;;;3.48;100.00;103221.00;7387818;19;20419;-51
2023/02/14 07:03:48;;;;;;;52.50;20.83;;;;;;;3.43;100.00;103221.22;7386568;19;20967;-53
2023/02/14 07:06:20;;;;;;;58.17;24.03;;;;;;;3.55;100.00;103212.38;7389194;19;20413;-55
2023/02/14 07:08:50;;;;;;;52.73;22.40;;;;;;;3.53;100.00;103213.81;7388885;19;20840;-55
2023/02/14 07:11:19;;;;;;;55.27;20.70;;;;;;;3.51;100.00;103210.22;7390558;19;20451;-54
2023/02/14 07:13:49;;;;;;;52.33;22.60;;;;;;;3.52;100.00;103217.13;7389874;19;20443;-55
2023/02/14 07:16:18;;;;;;;56.97;22.10;;;;;;;3.57;100.00;103210.88;7392407;19;20395;-56
2023/02/14 07:18:48;;;;;;;50.63;20.90;;;;;;;3.62;100.00;103193.50;7388740;19;20455;-57
2023/02/14 07:21:17;;;;;;;53.20;22.10;;;;;;;3.65;100.00;103187.09;7390375;19;20447;-55
2023/02/14 07:23:49;;;;;;;56.13;23.53;;;;;;;3.65;100.00;103194.75;7385769;19;20436;-54
2023/02/14 07:26:19;;;;;;;56.43;23.20;;;;;;;3.68;100.00;103188.19;7389643;19;20731;-54
2023/02/14 07:28:50;;;;;;;57.73;23.10;;;;;;;3.61;100.00;103192.63;7388617;19;20428;-56
2023/02/14 07:31:22;;;;;;;53.30;23.03;;;;;;;3.62;100.00;103186.78;7386990;19;20427;-57
2023/02/14 07:33:52;;;;;;;53.87;23.10;;;;;;;3.63;100.00;103193.69;7385827;19;20416;-58
2023/02/14 07:36:21;;;;;;;52.47;21.73;;;;;;;3.66;100.00;103190.56;7387684;19;20392;-56
2023/02/14 07:38:53;;;;;;;47.60;20.50;;;;;;;3.67;100.00;103187.25;7384511;19;20412;-54
2023/02/14 07:41:23;;;;;;;63.03;21.97;;;;;;;3.66;100.00;103185.44;7390058;19;20420;-56
2023/02/14 07:43:52;;;;;;;49.77;19.73;;;;;;;3.70;100.00;103186.69;7385952;19;21027;-57
2023/02/14 07:46:21;;;;;;;53.27;22.07;;;;;;;3.73;100.00;103198.13;7388132;19;20912;-56
2023/02/14 07:48:51;;;;;;;54.37;22.37;;;;;;;3.75;100.00;103180.44;7385422;19;20445;-52
2023/02/14 07:51:20;;;;;;;56.67;23.50;;;;;;;3.77;100.00;103176.41;7386615;19;20777;-58
2023/02/14 07:53:50;;;;;;;46.93;20.20;;;;;;;3.80;100.00;103184.41;7383640;19;20445;-54
2023/02/14 07:56:22;;;;;;;51.97;21.60;;;;;;;3.84;100.00;103186.53;7392981;19;20412;-56
2023/02/14 07:58:51;;;;;;;55.00;22.37;;;;;;;3.91;100.00;103183.88;7391234;19;20402;-54
2023/02/14 08:01:21;;;;;;;53.50;22.07;;;;;;;3.93;100.00;103176.41;7393401;19;20422;-57
2023/02/14 08:03:51;;;;;;;59.93;22.80;;;;;;;3.92;100.00;103183.19;7391057;19;20435;-57
2023/02/14 08:06:21;;;;;;;47.67;20.07;;;;;;;3.95;100.00;103191.91;7395271;19;20902;-57
2023/02/14 08:08:51;;;;;;;50.90;20.70;;;;;;;3.94;100.00;103183.31;7391810;19;20468;-58
2023/02/14 08:14:05;;;;;;;56.43;21.77;;;;;;;4.04;100.00;103180.09;7390496;19;20455;-57
2023/02/14 08:16:36;;;;;;;60.13;21.97;;;;;;;4.11;100.00;103177.47;7394548;19;20426;-57
2023/02/14 08:19:06;;;;;;;54.27;22.80;;;;;;;4.12;100.00;103183.50;7389737;19;20421;-54
2023/02/14 08:21:35;;;;;;;48.60;21.00;;;;;;;4.12;100.00;103192.06;7392467;19;20419;-54
2023/02/14 08:24:05;;;;;;;46.97;20.60;;;;;;;4.21;100.00;103191.22;7391773;19;20736;-57
2023/02/14 08:26:38;;;;;;;51.53;22.10;;;;;;;4.25;100.00;103188.28;7394528;19;20400;-57
2023/02/14 08:29:07;;;;;;;53.67;22.60;;;;;;;4.31;100.00;103187.25;7389271;19;20464;-58
2023/02/14 08:31:37;;;;;;;48.77;20.80;;;;;;;4.38;100.00;103193.94;7393428;19;20427;-55
2023/02/14 08:34:07;;;;;;;49.77;21.03;;;;;;;4.40;100.00;103192.44;7391995;19;20421;-58
2023/02/14 08:36:36;;;;;;;45.77;19.90;;;;;;;4.45;100.00;103196.41;7390077;19;20420;-56
2023/02/14 08:39:07;;;;;;;48.60;20.73;;;;;;;4.49;100.00;103199.25;7388845;19;20416;-57
2023/02/14 08:41:39;;;;;;;45.50;19.60;;;;;;;4.54;100.00;103200.66;7390058;19;20443;-56
2023/02/14 08:44:08;;;;;;;42.33;20.43;;;;;;;4.63;100.00;103204.19;7388526;19;20974;-52
2023/02/14 08:46:38;;;;;;;47.10;20.03;;;;;;;4.70;100.00;103208.28;7391613;19;21250;-58
2023/02/14 08:49:07;;;;;;;46.60;20.30;;;;;;;4.76;100.00;103211.50;7387982;19;20446;-56
2023/02/14 08:51:37;;;;;;;42.83;19.17;;;;;;;4.75;100.00;103211.31;7389523;19;20816;-57
2023/02/14 08:54:06;;;;;;;41.67;19.67;;;;;;;4.81;100.00;103218.00;7392449;19;20452;-58
2023/02/14 08:56:39;;;;;;;46.33;19.20;;;;;;;4.80;100.00;103225.50;7391353;19;20396;-57
2023/02/14 08:59:08;;;;;;;40.90;18.70;;;;;;;4.89;100.00;103220.47;7388473;19;20410;-57
2023/02/14 09:01:38;;;;;;;39.27;17.80;;;;;;;4.93;100.00;103228.59;7389844;19;20436;-55
2023/02/14 09:04:07;;;;;;;42.73;19.03;;;;;;;4.97;100.00;103235.88;7388701;19;20429;-56
2023/02/14 09:06:39;;;;;;;39.67;16.83;;;;;;;5.01;100.00;103231.97;7390272;19;20756;-57
2023/02/14 09:09:08;;;;;;;41.17;17.00;;;;;;;5.04;100.00;103239.97;7388410;19;20431;-56
2023/02/14 09:11:40;;;;;;;40.90;17.67;;;;;;;5.09;100.00;103245.56;7392161;19;20968;-56
2023/02/14 09:14:10;;;;;;;37.10;17.50;;;;;;;5.19;100.00;103250.91;7388135;19;20422;-58
2023/02/14 09:16:39;;;;;;;40.43;17.83;;;;;;;5.24;100.00;103244.59;7391566;19;20394;-54
2023/02/14 09:19:09;;;;;;;38.40;17.07;;;;;;;5.26;100.00;103242.19;7387447;19;20961;-55
2023/02/14 09:21:38;;;;;;;41.37;17.97;;;;;;;5.27;100.00;103239.81;7389692;19;20437;-55
2023/02/14 09:24:08;;;;;;;37.60;17.27;;;;;;;5.37;100.00;103238.19;7387481;19;20442;-58
2023/02/14 09:26:41;;;;;;;36.37;17.43;;;;;;;5.40;100.00;103248.75;7391221;19;20389;-55
2023/02/14 09:29:12;;;;;;;33.63;15.50;;;;;;;5.43;100.00;103246.50;7387912;19;20453;-57
2023/02/14 09:31:41;;;;;;;40.73;17.23;;;;;;;5.53;100.00;103248.34;7389731;19;21345;-54
2023/02/14 09:34:11;;;;;;;37.33;16.53;;;;;;;5.67;100.00;103254.88;7387296;19;20436;-56
2023/02/14 09:39:22;;;;;;;42.60;17.23;;;;;;;5.66;100.00;103263.31;7389319;19;20414;-57
2023/02/14 09:42:16;;;;;;;37.23;16.93;;;;;;;5.57;100.00;103259.78;7386919;19;20973;-58
2023/02/14 09:44:49;;;;;;;35.50;16.13;;;;;;;5.68;100.00;103260.16;7391119;19;20422;-56
2023/02/14 09:47:23;;;;;;;41.33;15.73;;;;;;;5.80;100.00;103265.63;7387896;19;20389;-55
2023/02/14 09:49:53;;;;;;;33.23;16.30;;;;;;;5.91;100.00;103266.69;7389328;19;20767;-58
2023/02/14 09:52:26;;;;;;;36.43;16.47;;;;;;;6.02;100.00;103269.44;7386067;19;20406;-58
2023/02/14 09:54:58;;;;;;;35.87;15.80;;;;;;;6.14;100.00;103270.72;7390844;19;20390;-57
2023/02/14 09:57:37;;;;;;;34.87;15.93;;;;;;;6.23;100.00;103273.28;7387023;19;20415;-56
2023/02/14 10:00:18;;;;;;;36.80;16.93;;;;;;;6.30;100.00;103278.28;7390219;19;20743;-58
2023/02/14 10:02:58;;;;;;;40.40;16.50;;;;;;;6.40;100.00;103284.34;7388027;19;20801;-58
2023/02/14 10:05:30;;;;;;;33.13;15.43;;;;;;;6.41;100.00;103286.13;7390687;19;20441;-58
2023/02/14 10:08:02;;;;;;;36.30;15.33;;;;;;;6.34;100.00;103288.09;7387522;19;20418;-55
2023/02/14 10:10:36;;;;;;;32.53;16.07;;;;;;;6.28;100.00;103287.47;7389751;19;20941;-59
2023/02/14 10:13:15;;;;;;;33.60;16.47;;;;;;;6.40;100.00;103292.91;7389297;19;20537;-57
2023/02/14 10:15:47;;;;;;;32.70;15.20;;;;;;;6.51;100.00;103288.84;7390590;19;20412;-54
2023/02/14 10:18:20;;;;;;;35.50;16.13;;;;;;;6.40;100.00;103292.91;7385848;19;20532;-54
2023/02/14 10:20:53;;;;;;;30.53;15.13;;;;;;;6.58;100.00;103301.53;7389253;19;20429;-58
2023/02/14 10:23:33;;;;;;;33.83;16.00;;;;;;;6.75;100.00;103289.44;7387500;19;20764;-59
2023/02/14 10:26:05;;;;;;;33.50;16.10;;;;;;;6.81;100.00;103304.56;7390490;19;20396;-55
2023/02/14 10:28:39;;;;;;;33.80;16.30;;;;;;;6.78;100.00;103306.81;7386722;19;20433;-56
2023/02/14 10:31:22;;;;;;;36.17;17.17;;;;;;;6.80;100.00;103293.38;7389948;19;20487;-53
2023/02/14 10:33:55;;;;;;;33.00;16.07;;;;;;;6.95;100.00;103295.63;7388030;19;20439;-59
2023/02/14 10:36:39;;;;;;;33.80;15.63;;;;;;;6.94;100.00;103293.81;7390431;19;20419;-58
2023/02/14 10:39:18;;;;;;;32.47;16.13;;;;;;;6.85;100.00;103297.31;7386826;19;20395;-54
2023/02/14 10:41:52;;;;;;;36.60;15.50;;;;;;;6.96;100.00;103300.00;7387236;19;20446;-58
2023/02/14 10:44:42;;;;;;;32.67;16.77;;;;;;;6.98;100.00;103295.94;7389177;19;20380;-56
2023/02/14 10:47:32;;;;;;;36.10;17.43;;;;;;;6.94;100.00;103297.31;7386723;19;20982;-52
2023/02/14 10:50:08;;;;;;;37.60;17.77;;;;;;;8.27;100.00;103268.47;7389173;19;20733;-57
2023/02/14 10:52:42;;;;;;;40.10;18.40;;;;;;;7.97;100.00;103282.16;7386721;19;20411;-58
2023/02/14 10:55:15;;;;;;;37.03;17.83;;;;;;;8.09;100.00;103289.16;7392494;19;20387;-56
2023/02/14 10:58:04;;;;;;;39.17;19.10;;;;;;;7.91;100.00;103301.22;7386812;19;20423;-56
2023/02/14 11:00:37;;;;;;;33.27;16.53;;;;;;;7.66;100.00;103314.34;7388723;19;20411;-52
2023/02/14 11:03:09;;;;;;;35.60;16.80;;;;;;;7.71;100.00;103305.41;7386721;19;20422;-58
2023/02/14 11:05:42;;;;;;;38.07;19.20;;;;;;;7.77;100.00;103308.56;7389539;19;20419;-54
2023/02/14 11:08:23;;;;;;;39.73;19.73;;;;;;;7.90;100.00;103299.41;7388988;19;20436;-57
2023/02/14 11:10:54;;;;;;;31.50;17.33;;;;;;;7.84;100.00;103305.78;7388721;19;20856;-56
2023/02/14 11:13:35;;;;;;;31.53;15.90;;;;;;;7.93;100.00;103302.25;7386535;19;20423;-55
2023/02/14 11:16:09;;;;;;;32.53;17.63;;;;;;;8.15;100.00;103294.88;7389431;19;20920;-57
2023/02/14 11:18:40;;;;;;;33.83;15.73;;;;;;;7.79;100.00;103301.00;7386077;19;20423;-56
2023/02/14 11:21:12;;;;;;;30.10;15.87;;;;;;;7.67;100.00;103298.16;7388591;19;20783;-56
2023/02/14 11:23:43;;;;;;;35.17;18.10;;;;;;;7.94;100.00;103291.22;7385989;19;20430;-56
2023/02/14 11:26:24;;;;;;;31.57;15.33;;;;;;;8.13;100.00;103286.13;7389078;19;20391;-53
2023/02/14 11:28:57;;;;;;;34.77;17.13;;;;;;;8.40;100.00;103273.97;7386295;19;20419;-56
2023/02/14 11:31:35;;;;;;;36.73;18.27;;;;;;;8.65;100.00;103268.50;7392924;19;20415;-56
2023/02/14 11:34:07;;;;;;;33.07;17.20;;;;;;;8.67;100.00;103274.69;7391072;19;20427;-58
2023/02/14 11:36:41;;;;;;;46.10;18.43;;;;;;;8.86;100.00;103271.19;7396407;19;20384;-56
2023/02/14 11:39:21;;;;;;;29.30;15.00;;;;;;;8.88;100.00;103269.66;7392458;19;20407;-57
2023/02/14 11:41:52;;;;;;;26.93;14.50;;;;;;;8.80;100.00;103275.78;7392454;19;20415;-56
2023/02/14 11:44:24;;;;;;;32.13;16.27;;;;;;;8.80;100.00;103275.78;7395091;19;20459;-55
2023/02/14 11:46:58;;;;;;;31.30;14.97;;;;;;;8.82;100.00;103266.56;7391633;19;20512;-54
2023/02/14 11:49:33;;;;;;;49.60;22.90;;;;;;;9.01;100.00;103272.56;7391327;19;20431;-52
2023/02/14 11:52:10;;;;;;;39.33;20.00;;;;;;;9.32;100.00;103267.53;7387247;19;20923;-58
2023/02/14 11:54:43;;;;;;;39.30;18.33;;;;;;;8.90;100.00;103273.28;7394603;19;20415;-55